sensor_id;sensor_type;location;lat;lon;timestamp;P1;durP1;ratioP1;P2;durP2;ratioP2
23472;SDS011;11909;52.516;13.564;2023-03-13T00:00:51;19.45;;;8.73;;
23472;SDS011;11909;52.516;13.564;2023-03-13T00:03:20;18.23;;;8.35;;
23472;SDS011;11909;52.516;13.564;2023-03-13T00:05:47;13.73;;;8.43;;
23472;SDS011;11909;52.516;13.564;2023-03-13T00:08:15;15.25;;;7.97;;
23472;SDS011;11909;52.516;13.564;2023-03-13T00:10:43;25.23;;;9.35;;
23472;SDS011;11909;52.516;13.564;2023-03-13T00:13:12;17.95;;;7.97;;
23472;SDS011;11909;52.516;13.564;2023-03-13T00:15:40;17.75;;;8.27;;
23472;SDS011;11909;52.516;13.564;2023-03-13T00:18:08;15.40;;;8.63;;
23472;SDS011;11909;52.516;13.564;2023-03-13T00:20:36;20.55;;;8.20;;
23472;SDS011;11909;52.516;13.564;2023-03-13T00:23:03;18.15;;;8.25;;
23472;SDS011;11909;52.516;13.564;2023-03-13T00:25:31;20.08;;;8.60;;
23472;SDS011;11909;52.516;13.564;2023-03-13T00:27:59;22.17;;;8.55;;
23472;SDS011;11909;52.516;13.564;2023-03-13T00:30:28;18.90;;;8.77;;
23472;SDS011;11909;52.516;13.564;2023-03-13T00:32:55;17.27;;;8.75;;
23472;SDS011;11909;52.516;13.564;2023-03-13T00:35:23;16.02;;;8.38;;
23472;SDS011;11909;52.516;13.564;2023-03-13T00:37:51;21.35;;;8.93;;
23472;SDS011;11909;52.516;13.564;2023-03-13T00:40:19;23.02;;;8.98;;
23472;SDS011;11909;52.516;13.564;2023-03-13T00:42:46;16.30;;;8.43;;
23472;SDS011;11909;52.516;13.564;2023-03-13T00:45:14;21.85;;;8.55;;
23472;SDS011;11909;52.516;13.564;2023-03-13T00:47:43;22.45;;;8.88;;
23472;SDS011;11909;52.516;13.564;2023-03-13T00:50:11;19.40;;;7.55;;
23472;SDS011;11909;52.516;13.564;2023-03-13T00:52:39;23.10;;;8.32;;
23472;SDS011;11909;52.516;13.564;2023-03-13T00:55:07;22.88;;;9.15;;
23472;SDS011;11909;52.516;13.564;2023-03-13T00:57:35;25.15;;;9.10;;
23472;SDS011;11909;52.516;13.564;2023-03-13T01:00:03;18.90;;;8.10;;
23472;SDS011;11909;52.516;13.564;2023-03-13T01:02:32;18.35;;;8.15;;
23472;SDS011;11909;52.516;13.564;2023-03-13T01:05:01;18.08;;;8.32;;
23472;SDS011;11909;52.516;13.564;2023-03-13T01:07:29;24.67;;;8.50;;
23472;SDS011;11909;52.516;13.564;2023-03-13T01:09:57;21.40;;;8.55;;
23472;SDS011;11909;52.516;13.564;2023-03-13T01:12:24;18.20;;;8.80;;
23472;SDS011;11909;52.516;13.564;2023-03-13T01:14:52;19.02;;;8.73;;
23472;SDS011;11909;52.516;13.564;2023-03-13T01:17:20;30.65;;;10.27;;
23472;SDS011;11909;52.516;13.564;2023-03-13T01:19:48;21.83;;;8.95;;
23472;SDS011;11909;52.516;13.564;2023-03-13T01:22:17;19.65;;;8.90;;
23472;SDS011;11909;52.516;13.564;2023-03-13T01:24:45;21.13;;;9.35;;
23472;SDS011;11909;52.516;13.564;2023-03-13T01:27:17;26.70;;;9.15;;
23472;SDS011;11909;52.516;13.564;2023-03-13T01:29:45;17.50;;;8.45;;
23472;SDS011;11909;52.516;13.564;2023-03-13T01:32:13;17.98;;;9.07;;
23472;SDS011;11909;52.516;13.564;2023-03-13T01:34:40;20.02;;;9.35;;
23472;SDS011;11909;52.516;13.564;2023-03-13T01:37:08;20.17;;;9.38;;
23472;SDS011;11909;52.516;13.564;2023-03-13T01:39:37;18.60;;;9.48;;
23472;SDS011;11909;52.516;13.564;2023-03-13T01:42:06;21.52;;;9.43;;
23472;SDS011;11909;52.516;13.564;2023-03-13T01:44:47;15.70;;;8.50;;
23472;SDS011;11909;52.516;13.564;2023-03-13T01:47:16;20.55;;;9.82;;
23472;SDS011;11909;52.516;13.564;2023-03-13T01:49:44;18.00;;;9.35;;
23472;SDS011;11909;52.516;13.564;2023-03-13T01:52:14;21.52;;;9.70;;
23472;SDS011;11909;52.516;13.564;2023-03-13T01:54:46;19.60;;;9.73;;
23472;SDS011;11909;52.516;13.564;2023-03-13T01:57:19;16.85;;;9.45;;
23472;SDS011;11909;52.516;13.564;2023-03-13T01:59:51;18.33;;;10.02;;
23472;SDS011;11909;52.516;13.564;2023-03-13T02:02:23;23.95;;;10.70;;
23472;SDS011;11909;52.516;13.564;2023-03-13T02:04:53;24.02;;;10.95;;
23472;SDS011;11909;52.516;13.564;2023-03-13T02:07:23;20.17;;;10.15;;
23472;SDS011;11909;52.516;13.564;2023-03-13T02:09:57;20.33;;;10.15;;
23472;SDS011;11909;52.516;13.564;2023-03-13T02:12:26;19.02;;;9.95;;
23472;SDS011;11909;52.516;13.564;2023-03-13T02:14:58;22.60;;;10.38;;
23472;SDS011;11909;52.516;13.564;2023-03-13T02:17:30;20.90;;;10.77;;
23472;SDS011;11909;52.516;13.564;2023-03-13T02:20:00;18.52;;;9.85;;
23472;SDS011;11909;52.516;13.564;2023-03-13T02:22:30;18.95;;;10.50;;
23472;SDS011;11909;52.516;13.564;2023-03-13T02:25:06;22.17;;;11.15;;
23472;SDS011;11909;52.516;13.564;2023-03-13T02:27:40;18.80;;;10.40;;
23472;SDS011;11909;52.516;13.564;2023-03-13T02:30:11;19.10;;;10.27;;
23472;SDS011;11909;52.516;13.564;2023-03-13T02:32:41;15.30;;;9.55;;
23472;SDS011;11909;52.516;13.564;2023-03-13T02:35:11;20.13;;;10.80;;
23472;SDS011;11909;52.516;13.564;2023-03-13T02:37:41;16.83;;;9.07;;
23472;SDS011;11909;52.516;13.564;2023-03-13T02:40:11;19.27;;;9.77;;
23472;SDS011;11909;52.516;13.564;2023-03-13T02:42:43;19.02;;;9.20;;
23472;SDS011;11909;52.516;13.564;2023-03-13T02:45:12;16.50;;;9.38;;
23472;SDS011;11909;52.516;13.564;2023-03-13T02:47:42;13.35;;;7.75;;
23472;SDS011;11909;52.516;13.564;2023-03-13T02:50:10;26.92;;;9.75;;
23472;SDS011;11909;52.516;13.564;2023-03-13T02:52:40;17.35;;;8.68;;
23472;SDS011;11909;52.516;13.564;2023-03-13T02:55:11;17.73;;;8.60;;
23472;SDS011;11909;52.516;13.564;2023-03-13T02:57:44;15.55;;;7.80;;
23472;SDS011;11909;52.516;13.564;2023-03-13T03:00:12;18.33;;;6.80;;
23472;SDS011;11909;52.516;13.564;2023-03-13T03:02:42;13.82;;;6.95;;
23472;SDS011;11909;52.516;13.564;2023-03-13T03:05:10;17.50;;;7.43;;
23472;SDS011;11909;52.516;13.564;2023-03-13T03:07:39;14.40;;;6.75;;
23472;SDS011;11909;52.516;13.564;2023-03-13T03:10:07;17.27;;;7.50;;
23472;SDS011;11909;52.516;13.564;2023-03-13T03:12:35;17.92;;;7.20;;
23472;SDS011;11909;52.516;13.564;2023-03-13T03:15:05;17.58;;;6.90;;
23472;SDS011;11909;52.516;13.564;2023-03-13T03:17:33;13.05;;;6.15;;
23472;SDS011;11909;52.516;13.564;2023-03-13T03:20:02;19.23;;;6.28;;
23472;SDS011;11909;52.516;13.564;2023-03-13T03:22:33;13.82;;;6.60;;
23472;SDS011;11909;52.516;13.564;2023-03-13T03:25:03;19.38;;;6.90;;
23472;SDS011;11909;52.516;13.564;2023-03-13T03:27:31;16.10;;;6.32;;
23472;SDS011;11909;52.516;13.564;2023-03-13T03:29:59;20.77;;;5.65;;
23472;SDS011;11909;52.516;13.564;2023-03-13T03:32:28;19.25;;;6.05;;
23472;SDS011;11909;52.516;13.564;2023-03-13T03:34:55;17.55;;;5.95;;
23472;SDS011;11909;52.516;13.564;2023-03-13T03:37:23;19.98;;;5.88;;
23472;SDS011;11909;52.516;13.564;2023-03-13T03:39:51;20.55;;;5.30;;
23472;SDS011;11909;52.516;13.564;2023-03-13T03:42:19;22.17;;;5.55;;
23472;SDS011;11909;52.516;13.564;2023-03-13T03:44:46;15.45;;;5.07;;
23472;SDS011;11909;52.516;13.564;2023-03-13T03:47:14;17.75;;;5.43;;
23472;SDS011;11909;52.516;13.564;2023-03-13T03:49:43;18.83;;;4.97;;
23472;SDS011;11909;52.516;13.564;2023-03-13T03:52:11;14.07;;;4.75;;
23472;SDS011;11909;52.516;13.564;2023-03-13T03:54:39;18.98;;;5.45;;
23472;SDS011;11909;52.516;13.564;2023-03-13T03:57:06;22.00;;;5.55;;
23472;SDS011;11909;52.516;13.564;2023-03-13T03:59:34;18.58;;;5.78;;
23472;SDS011;11909;52.516;13.564;2023-03-13T04:02:01;19.88;;;4.45;;
23472;SDS011;11909;52.516;13.564;2023-03-13T04:04:29;19.85;;;5.53;;
23472;SDS011;11909;52.516;13.564;2023-03-13T04:06:58;17.02;;;4.82;;
23472;SDS011;11909;52.516;13.564;2023-03-13T04:09:26;21.35;;;4.85;;
23472;SDS011;11909;52.516;13.564;2023-03-13T04:11:57;12.85;;;4.43;;
23472;SDS011;11909;52.516;13.564;2023-03-13T04:14:24;15.45;;;5.60;;
23472;SDS011;11909;52.516;13.564;2023-03-13T04:16:52;16.13;;;4.38;;
23472;SDS011;11909;52.516;13.564;2023-03-13T04:19:20;16.65;;;4.90;;
23472;SDS011;11909;52.516;13.564;2023-03-13T04:21:48;20.10;;;4.78;;
23472;SDS011;11909;52.516;13.564;2023-03-13T04:24:17;15.55;;;4.55;;
23472;SDS011;11909;52.516;13.564;2023-03-13T04:26:44;14.20;;;4.47;;
23472;SDS011;11909;52.516;13.564;2023-03-13T04:29:12;17.10;;;4.53;;
23472;SDS011;11909;52.516;13.564;2023-03-13T04:31:40;17.00;;;4.88;;
23472;SDS011;11909;52.516;13.564;2023-03-13T04:34:07;20.60;;;4.65;;
23472;SDS011;11909;52.516;13.564;2023-03-13T04:36:35;17.45;;;4.47;;
23472;SDS011;11909;52.516;13.564;2023-03-13T04:39:03;21.30;;;5.35;;
23472;SDS011;11909;52.516;13.564;2023-03-13T04:41:32;14.55;;;4.07;;
23472;SDS011;11909;52.516;13.564;2023-03-13T04:44:00;17.70;;;5.10;;
23472;SDS011;11909;52.516;13.564;2023-03-13T04:46:27;19.00;;;4.88;;
23472;SDS011;11909;52.516;13.564;2023-03-13T04:48:55;17.00;;;4.45;;
23472;SDS011;11909;52.516;13.564;2023-03-13T04:51:23;19.80;;;4.63;;
23472;SDS011;11909;52.516;13.564;2023-03-13T04:53:51;16.85;;;4.88;;
23472;SDS011;11909;52.516;13.564;2023-03-13T04:56:20;26.35;;;5.07;;
23472;SDS011;11909;52.516;13.564;2023-03-13T04:59:09;20.33;;;5.30;;
23472;SDS011;11909;52.516;13.564;2023-03-13T05:01:37;16.98;;;5.13;;
23472;SDS011;11909;52.516;13.564;2023-03-13T05:04:05;17.52;;;4.97;;
23472;SDS011;11909;52.516;13.564;2023-03-13T05:06:34;22.15;;;5.35;;
23472;SDS011;11909;52.516;13.564;2023-03-13T05:09:02;21.20;;;5.32;;
23472;SDS011;11909;52.516;13.564;2023-03-13T05:11:30;17.23;;;4.55;;
23472;SDS011;11909;52.516;13.564;2023-03-13T05:13:58;22.73;;;5.13;;
23472;SDS011;11909;52.516;13.564;2023-03-13T05:16:27;20.15;;;4.43;;
23472;SDS011;11909;52.516;13.564;2023-03-13T05:18:54;21.40;;;4.80;;
23472;SDS011;11909;52.516;13.564;2023-03-13T05:21:22;15.63;;;4.53;;
23472;SDS011;11909;52.516;13.564;2023-03-13T05:23:50;13.90;;;4.88;;
23472;SDS011;11909;52.516;13.564;2023-03-13T05:26:17;16.67;;;5.47;;
23472;SDS011;11909;52.516;13.564;2023-03-13T05:28:45;22.63;;;5.32;;
23472;SDS011;11909;52.516;13.564;2023-03-13T05:31:13;20.90;;;4.53;;
23472;SDS011;11909;52.516;13.564;2023-03-13T05:33:42;22.30;;;4.60;;
23472;SDS011;11909;52.516;13.564;2023-03-13T05:36:09;20.80;;;4.70;;
23472;SDS011;11909;52.516;13.564;2023-03-13T05:38:37;25.48;;;4.88;;
23472;SDS011;11909;52.516;13.564;2023-03-13T05:41:05;17.90;;;4.57;;
23472;SDS011;11909;52.516;13.564;2023-03-13T05:43:33;22.17;;;5.15;;
23472;SDS011;11909;52.516;13.564;2023-03-13T05:46:00;23.42;;;5.25;;
23472;SDS011;11909;52.516;13.564;2023-03-13T05:48:28;19.23;;;5.18;;
23472;SDS011;11909;52.516;13.564;2023-03-13T05:50:57;17.85;;;4.70;;
23472;SDS011;11909;52.516;13.564;2023-03-13T05:53:25;15.32;;;4.60;;
23472;SDS011;11909;52.516;13.564;2023-03-13T05:55:53;18.60;;;4.63;;
23472;SDS011;11909;52.516;13.564;2023-03-13T05:58:20;19.52;;;4.93;;
23472;SDS011;11909;52.516;13.564;2023-03-13T06:00:48;18.38;;;5.30;;
23472;SDS011;11909;52.516;13.564;2023-03-13T06:03:16;22.35;;;5.25;;
23472;SDS011;11909;52.516;13.564;2023-03-13T06:05:43;17.30;;;5.00;;
23472;SDS011;11909;52.516;13.564;2023-03-13T06:08:12;26.80;;;5.63;;
23472;SDS011;11909;52.516;13.564;2023-03-13T06:10:40;21.90;;;5.28;;
23472;SDS011;11909;52.516;13.564;2023-03-13T06:13:08;22.20;;;5.93;;
23472;SDS011;11909;52.516;13.564;2023-03-13T06:15:49;24.17;;;4.47;;
23472;SDS011;11909;52.516;13.564;2023-03-13T06:18:17;24.95;;;5.55;;
23472;SDS011;11909;52.516;13.564;2023-03-13T06:20:45;21.25;;;4.68;;
23472;SDS011;11909;52.516;13.564;2023-03-13T06:23:15;22.20;;;4.93;;
23472;SDS011;11909;52.516;13.564;2023-03-13T06:25:45;24.13;;;5.10;;
23472;SDS011;11909;52.516;13.564;2023-03-13T06:28:14;29.00;;;4.88;;
23472;SDS011;11909;52.516;13.564;2023-03-13T06:30:41;25.13;;;5.50;;
23472;SDS011;11909;52.516;13.564;2023-03-13T06:33:09;20.88;;;5.57;;
23472;SDS011;11909;52.516;13.564;2023-03-13T06:35:38;21.40;;;5.30;;
23472;SDS011;11909;52.516;13.564;2023-03-13T06:38:22;24.35;;;4.78;;
23472;SDS011;11909;52.516;13.564;2023-03-13T06:40:49;24.27;;;5.18;;
23472;SDS011;11909;52.516;13.564;2023-03-13T06:43:17;23.25;;;5.13;;
23472;SDS011;11909;52.516;13.564;2023-03-13T06:45:45;19.13;;;5.13;;
23472;SDS011;11909;52.516;13.564;2023-03-13T06:48:13;20.20;;;5.38;;
23472;SDS011;11909;52.516;13.564;2023-03-13T06:50:41;35.90;;;5.35;;
23472;SDS011;11909;52.516;13.564;2023-03-13T06:53:11;33.17;;;5.88;;
23472;SDS011;11909;52.516;13.564;2023-03-13T06:55:43;68.50;;;25.83;;
23472;SDS011;11909;52.516;13.564;2023-03-13T06:58:12;21.98;;;5.68;;
23472;SDS011;11909;52.516;13.564;2023-03-13T07:00:57;19.85;;;5.20;;
23472;SDS011;11909;52.516;13.564;2023-03-13T07:03:25;32.38;;;5.35;;
23472;SDS011;11909;52.516;13.564;2023-03-13T07:05:54;20.25;;;5.10;;
23472;SDS011;11909;52.516;13.564;2023-03-13T07:08:23;21.85;;;4.65;;
23472;SDS011;11909;52.516;13.564;2023-03-13T07:10:53;20.15;;;5.38;;
23472;SDS011;11909;52.516;13.564;2023-03-13T07:13:24;23.13;;;5.30;;
23472;SDS011;11909;52.516;13.564;2023-03-13T07:15:51;41.05;;;6.43;;
23472;SDS011;11909;52.516;13.564;2023-03-13T07:18:20;19.75;;;4.72;;
23472;SDS011;11909;52.516;13.564;2023-03-13T07:20:52;25.27;;;5.50;;
23472;SDS011;11909;52.516;13.564;2023-03-13T07:23:21;56.03;;;8.32;;
23472;SDS011;11909;52.516;13.564;2023-03-13T07:25:54;26.83;;;5.75;;
23472;SDS011;11909;52.516;13.564;2023-03-13T07:28:23;25.10;;;6.13;;
23472;SDS011;11909;52.516;13.564;2023-03-13T07:30:52;29.10;;;5.93;;
23472;SDS011;11909;52.516;13.564;2023-03-13T07:33:20;21.77;;;5.32;;
23472;SDS011;11909;52.516;13.564;2023-03-13T07:35:47;25.52;;;5.55;;
23472;SDS011;11909;52.516;13.564;2023-03-13T07:38:15;26.95;;;7.55;;
23472;SDS011;11909;52.516;13.564;2023-03-13T07:40:47;24.20;;;5.38;;
23472;SDS011;11909;52.516;13.564;2023-03-13T07:43:17;22.67;;;5.20;;
23472;SDS011;11909;52.516;13.564;2023-03-13T07:45:52;20.02;;;5.20;;
23472;SDS011;11909;52.516;13.564;2023-03-13T07:48:21;25.25;;;5.82;;
23472;SDS011;11909;52.516;13.564;2023-03-13T07:50:53;23.42;;;4.93;;
23472;SDS011;11909;52.516;13.564;2023-03-13T07:53:21;24.42;;;5.47;;
23472;SDS011;11909;52.516;13.564;2023-03-13T07:55:53;27.27;;;5.07;;
23472;SDS011;11909;52.516;13.564;2023-03-13T07:58:24;24.45;;;5.28;;
23472;SDS011;11909;52.516;13.564;2023-03-13T08:00:54;18.90;;;4.57;;
23472;SDS011;11909;52.516;13.564;2023-03-13T08:03:23;19.73;;;4.65;;
23472;SDS011;11909;52.516;13.564;2023-03-13T08:05:57;18.67;;;4.97;;
23472;SDS011;11909;52.516;13.564;2023-03-13T08:08:26;21.65;;;5.03;;
23472;SDS011;11909;52.516;13.564;2023-03-13T08:10:58;18.70;;;5.13;;
23472;SDS011;11909;52.516;13.564;2023-03-13T08:13:28;18.70;;;4.25;;
23472;SDS011;11909;52.516;13.564;2023-03-13T08:16:03;22.90;;;4.97;;
23472;SDS011;11909;52.516;13.564;2023-03-13T08:18:33;22.80;;;6.60;;
23472;SDS011;11909;52.516;13.564;2023-03-13T08:21:01;29.63;;;5.45;;
23472;SDS011;11909;52.516;13.564;2023-03-13T08:23:30;22.50;;;5.78;;
23472;SDS011;11909;52.516;13.564;2023-03-13T08:26:02;20.08;;;5.47;;
23472;SDS011;11909;52.516;13.564;2023-03-13T08:28:32;20.10;;;5.40;;
23472;SDS011;11909;52.516;13.564;2023-03-13T08:31:05;22.67;;;5.38;;
23472;SDS011;11909;52.516;13.564;2023-03-13T08:33:34;22.65;;;4.90;;
23472;SDS011;11909;52.516;13.564;2023-03-13T08:36:12;21.42;;;5.40;;
23472;SDS011;11909;52.516;13.564;2023-03-13T08:38:43;22.67;;;5.80;;
23472;SDS011;11909;52.516;13.564;2023-03-13T08:41:12;21.73;;;5.55;;
23472;SDS011;11909;52.516;13.564;2023-03-13T08:43:42;24.80;;;5.13;;
23472;SDS011;11909;52.516;13.564;2023-03-13T08:46:10;21.38;;;5.20;;
23472;SDS011;11909;52.516;13.564;2023-03-13T08:48:38;15.13;;;4.18;;
23472;SDS011;11909;52.516;13.564;2023-03-13T08:51:07;15.70;;;4.55;;
23472;SDS011;11909;52.516;13.564;2023-03-13T08:53:37;17.25;;;4.95;;
23472;SDS011;11909;52.516;13.564;2023-03-13T08:56:07;24.98;;;5.22;;
23472;SDS011;11909;52.516;13.564;2023-03-13T08:58:35;17.42;;;4.70;;
23472;SDS011;11909;52.516;13.564;2023-03-13T09:01:06;20.30;;;4.07;;
23472;SDS011;11909;52.516;13.564;2023-03-13T09:03:35;14.27;;;3.72;;
23472;SDS011;11909;52.516;13.564;2023-03-13T09:06:03;16.17;;;4.30;;
23472;SDS011;11909;52.516;13.564;2023-03-13T09:08:31;20.00;;;4.38;;
23472;SDS011;11909;52.516;13.564;2023-03-13T09:11:00;23.00;;;4.35;;
23472;SDS011;11909;52.516;13.564;2023-03-13T09:13:30;19.63;;;3.92;;
23472;SDS011;11909;52.516;13.564;2023-03-13T09:15:59;23.48;;;3.80;;
23472;SDS011;11909;52.516;13.564;2023-03-13T09:18:30;11.90;;;3.75;;
23472;SDS011;11909;52.516;13.564;2023-03-13T09:20:58;17.77;;;4.30;;
23472;SDS011;11909;52.516;13.564;2023-03-13T09:23:26;15.75;;;4.25;;
23472;SDS011;11909;52.516;13.564;2023-03-13T09:25:54;22.20;;;7.88;;
23472;SDS011;11909;52.516;13.564;2023-03-13T09:28:23;17.67;;;3.90;;
23472;SDS011;11909;52.516;13.564;2023-03-13T09:30:52;11.25;;;3.72;;
23472;SDS011;11909;52.516;13.564;2023-03-13T09:33:21;13.27;;;3.67;;
23472;SDS011;11909;52.516;13.564;2023-03-13T09:35:51;10.35;;;3.42;;
23472;SDS011;11909;52.516;13.564;2023-03-13T09:38:19;17.42;;;4.10;;
23472;SDS011;11909;52.516;13.564;2023-03-13T09:40:48;13.65;;;3.67;;
23472;SDS011;11909;52.516;13.564;2023-03-13T09:43:39;18.30;;;4.57;;
23472;SDS011;11909;52.516;13.564;2023-03-13T09:46:12;13.57;;;3.80;;
23472;SDS011;11909;52.516;13.564;2023-03-13T09:48:45;14.85;;;3.88;;
23472;SDS011;11909;52.516;13.564;2023-03-13T09:51:17;15.85;;;4.07;;
23472;SDS011;11909;52.516;13.564;2023-03-13T09:53:48;20.92;;;3.92;;
23472;SDS011;11909;52.516;13.564;2023-03-13T09:56:22;11.65;;;3.30;;
23472;SDS011;11909;52.516;13.564;2023-03-13T09:58:53;15.25;;;3.33;;
23472;SDS011;11909;52.516;13.564;2023-03-13T10:01:25;15.70;;;3.53;;
23472;SDS011;11909;52.516;13.564;2023-03-13T10:03:58;15.90;;;4.10;;
23472;SDS011;11909;52.516;13.564;2023-03-13T10:06:34;12.02;;;3.15;;
23472;SDS011;11909;52.516;13.564;2023-03-13T10:09:15;14.85;;;4.85;;
23472;SDS011;11909;52.516;13.564;2023-03-13T10:11:48;13.65;;;3.42;;
23472;SDS011;11909;52.516;13.564;2023-03-13T10:14:21;15.73;;;6.80;;
23472;SDS011;11909;52.516;13.564;2023-03-13T10:16:58;14.07;;;3.38;;
23472;SDS011;11909;52.516;13.564;2023-03-13T10:19:31;11.48;;;3.28;;
23472;SDS011;11909;52.516;13.564;2023-03-13T10:22:07;15.30;;;3.58;;
23472;SDS011;11909;52.516;13.564;2023-03-13T10:24:41;12.98;;;3.28;;
23472;SDS011;11909;52.516;13.564;2023-03-13T10:27:13;14.38;;;3.40;;
23472;SDS011;11909;52.516;13.564;2023-03-13T10:29:41;15.85;;;5.57;;
23472;SDS011;11909;52.516;13.564;2023-03-13T10:32:11;9.23;;;3.30;;
23472;SDS011;11909;52.516;13.564;2023-03-13T10:37:14;9.88;;;3.38;;
23472;SDS011;11909;52.516;13.564;2023-03-13T10:39:45;8.80;;;3.22;;
23472;SDS011;11909;52.516;13.564;2023-03-13T10:42:17;8.02;;;3.10;;
23472;SDS011;11909;52.516;13.564;2023-03-13T10:44:52;12.55;;;3.25;;
23472;SDS011;11909;52.516;13.564;2023-03-13T10:47:23;10.80;;;3.08;;
23472;SDS011;11909;52.516;13.564;2023-03-13T10:49:51;12.98;;;2.85;;
23472;SDS011;11909;52.516;13.564;2023-03-13T10:52:31;11.18;;;3.72;;
23472;SDS011;11909;52.516;13.564;2023-03-13T10:55:02;7.30;;;2.90;;
23472;SDS011;11909;52.516;13.564;2023-03-13T10:57:32;8.27;;;2.55;;
23472;SDS011;11909;52.516;13.564;2023-03-13T11:00:02;10.77;;;3.28;;
23472;SDS011;11909;52.516;13.564;2023-03-13T11:02:49;10.88;;;2.88;;
23472;SDS011;11909;52.516;13.564;2023-03-13T11:05:30;8.65;;;2.67;;
23472;SDS011;11909;52.516;13.564;2023-03-13T11:08:19;7.45;;;2.60;;
23472;SDS011;11909;52.516;13.564;2023-03-13T11:10:56;7.75;;;2.25;;
23472;SDS011;11909;52.516;13.564;2023-03-13T11:13:26;6.00;;;2.17;;
23472;SDS011;11909;52.516;13.564;2023-03-13T11:16:09;9.73;;;2.50;;
23472;SDS011;11909;52.516;13.564;2023-03-13T11:18:48;6.25;;;2.20;;
23472;SDS011;11909;52.516;13.564;2023-03-13T11:21:27;7.47;;;2.47;;
23472;SDS011;11909;52.516;13.564;2023-03-13T11:24:06;4.50;;;2.38;;
23472;SDS011;11909;52.516;13.564;2023-03-13T11:26:40;7.15;;;2.30;;
23472;SDS011;11909;52.516;13.564;2023-03-13T11:29:31;6.13;;;2.08;;
23472;SDS011;11909;52.516;13.564;2023-03-13T11:32:10;4.15;;;2.10;;
23472;SDS011;11909;52.516;13.564;2023-03-13T11:34:46;5.78;;;2.28;;
23472;SDS011;11909;52.516;13.564;2023-03-13T11:37:19;3.60;;;1.92;;
23472;SDS011;11909;52.516;13.564;2023-03-13T11:39:59;6.47;;;1.98;;
23472;SDS011;11909;52.516;13.564;2023-03-13T11:42:43;6.07;;;1.88;;
23472;SDS011;11909;52.516;13.564;2023-03-13T11:45:29;4.35;;;2.00;;
23472;SDS011;11909;52.516;13.564;2023-03-13T11:48:15;3.22;;;1.70;;
23472;SDS011;11909;52.516;13.564;2023-03-13T11:50:51;5.25;;;1.95;;
23472;SDS011;11909;52.516;13.564;2023-03-13T11:53:28;4.82;;;1.75;;
23472;SDS011;11909;52.516;13.564;2023-03-13T11:56:06;3.42;;;1.88;;
23472;SDS011;11909;52.516;13.564;2023-03-13T11:58:48;2.67;;;1.90;;
23472;SDS011;11909;52.516;13.564;2023-03-13T12:01:30;3.80;;;1.90;;
23472;SDS011;11909;52.516;13.564;2023-03-13T12:04:02;2.90;;;1.50;;
23472;SDS011;11909;52.516;13.564;2023-03-13T12:06:34;2.95;;;1.50;;
23472;SDS011;11909;52.516;13.564;2023-03-13T12:11:39;2.33;;;1.42;;
23472;SDS011;11909;52.516;13.564;2023-03-13T12:14:14;5.43;;;1.42;;
23472;SDS011;11909;52.516;13.564;2023-03-13T12:16:48;2.15;;;1.33;;
23472;SDS011;11909;52.516;13.564;2023-03-13T12:19:21;2.70;;;1.40;;
23472;SDS011;11909;52.516;13.564;2023-03-13T12:21:55;3.70;;;1.23;;
23472;SDS011;11909;52.516;13.564;2023-03-13T12:24:25;4.78;;;1.52;;
23472;SDS011;11909;52.516;13.564;2023-03-13T12:27:00;3.85;;;1.30;;
23472;SDS011;11909;52.516;13.564;2023-03-13T12:29:39;3.25;;;1.35;;
23472;SDS011;11909;52.516;13.564;2023-03-13T12:32:13;2.30;;;1.20;;
23472;SDS011;11909;52.516;13.564;2023-03-13T12:34:49;1.83;;;1.38;;
23472;SDS011;11909;52.516;13.564;2023-03-13T12:37:23;2.45;;;1.42;;
23472;SDS011;11909;52.516;13.564;2023-03-13T12:39:58;1.55;;;1.02;;
23472;SDS011;11909;52.516;13.564;2023-03-13T12:42:44;1.98;;;1.10;;
23472;SDS011;11909;52.516;13.564;2023-03-13T12:45:18;1.70;;;1.20;;
23472;SDS011;11909;52.516;13.564;2023-03-13T12:47:57;5.13;;;2.28;;
23472;SDS011;11909;52.516;13.564;2023-03-13T12:50:46;1.13;;;1.10;;
23472;SDS011;11909;52.516;13.564;2023-03-13T12:53:35;1.58;;;1.20;;
23472;SDS011;11909;52.516;13.564;2023-03-13T12:56:30;1.00;;;1.00;;
23472;SDS011;11909;52.516;13.564;2023-03-13T12:59:12;1.75;;;1.30;;
23472;SDS011;11909;52.516;13.564;2023-03-13T13:01:43;1.45;;;1.25;;
23472;SDS011;11909;52.516;13.564;2023-03-13T13:04:14;2.28;;;1.20;;
23472;SDS011;11909;52.516;13.564;2023-03-13T13:09:21;1.40;;;1.08;;
23472;SDS011;11909;52.516;13.564;2023-03-13T13:11:50;1.75;;;1.20;;
23472;SDS011;11909;52.516;13.564;2023-03-13T13:17:37;1.52;;;1.02;;
23472;SDS011;11909;52.516;13.564;2023-03-13T13:23:25;5.75;;;1.13;;
23472;SDS011;11909;52.516;13.564;2023-03-13T13:35:20;1.88;;;1.10;;
23472;SDS011;11909;52.516;13.564;2023-03-13T13:41:02;1.45;;;1.20;;
23472;SDS011;11909;52.516;13.564;2023-03-13T13:43:34;7.45;;;1.38;;
23472;SDS011;11909;52.516;13.564;2023-03-13T13:46:04;1.30;;;1.20;;
23472;SDS011;11909;52.516;13.564;2023-03-13T13:48:45;4.68;;;1.42;;
23472;SDS011;11909;52.516;13.564;2023-03-13T13:51:21;2.92;;;1.08;;
23472;SDS011;11909;52.516;13.564;2023-03-13T13:53:51;3.70;;;1.20;;
23472;SDS011;11909;52.516;13.564;2023-03-13T13:56:29;3.70;;;1.20;;
23472;SDS011;11909;52.516;13.564;2023-03-13T13:59:02;1.40;;;1.20;;
23472;SDS011;11909;52.516;13.564;2023-03-13T14:01:43;1.85;;;1.15;;
23472;SDS011;11909;52.516;13.564;2023-03-13T14:04:12;4.90;;;1.40;;
23472;SDS011;11909;52.516;13.564;2023-03-13T14:06:46;4.15;;;1.55;;
23472;SDS011;11909;52.516;13.564;2023-03-13T14:09:25;3.45;;;1.50;;
23472;SDS011;11909;52.516;13.564;2023-03-13T14:12:05;5.40;;;1.60;;
23472;SDS011;11909;52.516;13.564;2023-03-13T14:15:04;3.05;;;1.08;;
23472;SDS011;11909;52.516;13.564;2023-03-13T14:17:37;2.38;;;1.30;;
23472;SDS011;11909;52.516;13.564;2023-03-13T14:20:15;2.92;;;1.23;;
23472;SDS011;11909;52.516;13.564;2023-03-13T14:22:47;2.03;;;1.58;;
23472;SDS011;11909;52.516;13.564;2023-03-13T14:25:16;1.92;;;1.17;;
23472;SDS011;11909;52.516;13.564;2023-03-13T14:27:45;2.45;;;1.30;;
23472;SDS011;11909;52.516;13.564;2023-03-13T14:30:15;1.65;;;1.38;;
23472;SDS011;11909;52.516;13.564;2023-03-13T14:35:13;4.68;;;1.60;;
23472;SDS011;11909;52.516;13.564;2023-03-13T14:37:45;3.22;;;1.20;;
23472;SDS011;11909;52.516;13.564;2023-03-13T14:40:19;1.38;;;1.27;;
23472;SDS011;11909;52.516;13.564;2023-03-13T14:42:50;2.20;;;1.33;;
23472;SDS011;11909;52.516;13.564;2023-03-13T14:45:21;2.00;;;1.10;;
23472;SDS011;11909;52.516;13.564;2023-03-13T14:47:53;4.88;;;1.27;;
23472;SDS011;11909;52.516;13.564;2023-03-13T14:50:22;5.25;;;1.38;;
23472;SDS011;11909;52.516;13.564;2023-03-13T14:52:53;4.57;;;1.33;;
23472;SDS011;11909;52.516;13.564;2023-03-13T14:55:26;4.22;;;1.30;;
23472;SDS011;11909;52.516;13.564;2023-03-13T14:57:57;2.17;;;1.20;;
23472;SDS011;11909;52.516;13.564;2023-03-13T15:00:31;2.17;;;1.07;;
23472;SDS011;11909;52.516;13.564;2023-03-13T15:03:23;1.80;;;1.20;;
23472;SDS011;11909;52.516;13.564;2023-03-13T15:06:02;3.05;;;1.27;;
23472;SDS011;11909;52.516;13.564;2023-03-13T15:08:34;3.58;;;1.25;;
23472;SDS011;11909;52.516;13.564;2023-03-13T15:11:15;2.85;;;1.50;;
23472;SDS011;11909;52.516;13.564;2023-03-13T15:13:45;2.13;;;1.48;;
23472;SDS011;11909;52.516;13.564;2023-03-13T15:16:14;1.30;;;0.98;;